Lindale, TX (75771)

12:44 PM CST on December 03, 2016 (GMT -0600)
Mission Crest / The Cannery | | Change Station

Elev 551 ft 32.52 °N, 95.42 °W | Updated 4 seconds ago

Overcast
Overcast
48.0 °F
Feels Like 48 °F
N
2.0
Wind Variable Wind from SSW

Today
High -- | Low -- °F
--% Chance of Precip.
Yesterday
High -- | Low -- °F
Precip. -- in
Pressure 30.03 in
Visibility 10.0 miles
Clouds Overcast 1000 ft
Windchill 48 °F
Dew Point 45 °F
Humidity 90%
Rainfall 0.25 in
Snow Depth Not available.
7:07 AM 5:15 PM
Waxing Crescent, 16% visible
METAR KJDD 031835Z AUTO 07005KT 10SM OVC010 09/08 A3003 RMK AO2
Pressure 30.03 in
Visibility 10.0 miles
Clouds Overcast 1000 ft
Windchill 48 °F
Dew Point 45 °F
Humidity 90%
Rainfall 0.25 in
Snow Depth Not available.
7:07 AM 5:15 PM
Waxing Crescent, 16% visible
METAR KJDD 031835Z AUTO 07005KT 10SM OVC010 09/08 A3003 RMK AO2

10-Day Weather Forecast

Almanac

Astronomy

Dec. 03, 2016 Rise Set
Actual Time
Civil Twilight
Nautical Twilight
Astronomical Twilight
Moon
Length of Visible Light
Length of Day
Tomorrow will be .
, % of the Moon is Illuminated

Today's Extremes

State Highs State Lows

Community

WunderPhotos

Upload Photos

1,955,469 photos uploaded!

WunderBlog® & News

Nearby

Air Quality

  Air Quality AQ Index Pollutant
Not available.

Snow Depth

Station Depth Elevation

Earthquake Activity

City Distance Mag. Time & Date
Minimum magnitude displayed is 2.5.

Coastal Water Temperatures

Place Temperature

Stations

Nearby Weather Stations

Station Location Temp. Windchill Dew Point Humidity Wind Precip. Elev Updated Type
                   

Watches & Warnings

There are currently no watches in effect.